createdAt,value
2022-10-13T00:00:49.563Z,100340.72
2022-10-13T00:03:35.086Z,100340.78
2022-10-13T00:06:05.822Z,100345.44
2022-10-13T00:08:33.160Z,100340.78
2022-10-13T00:11:00.603Z,100332.13
2022-10-13T00:13:28.996Z,100337.75
2022-10-13T00:15:56.074Z,100314.66
2022-10-13T00:18:23.152Z,100337.59
2022-10-13T00:20:51.189Z,100343.06
2022-10-13T00:23:18.636Z,100341.06
2022-10-13T00:25:47.940Z,100341.44
2022-10-13T00:28:17.003Z,100344.31
2022-10-13T00:30:44.729Z,100347.47
2022-10-13T00:33:13.312Z,100354.69
2022-10-13T00:35:45.380Z,100361.13
2022-10-13T00:38:17.459Z,100356.66
2022-10-13T00:40:48.422Z,100365.50
2022-10-13T00:43:20.160Z,100350.94
2022-10-13T00:45:50.791Z,100361.03
2022-10-13T00:48:26.593Z,100358.09
2022-10-13T00:50:54.174Z,100359.22
2022-10-13T00:53:24.398Z,100346.81
2022-10-13T00:55:52.426Z,100365.09
2022-10-13T00:58:23.620Z,100356.94
2022-10-13T01:00:53.052Z,100365.25
2022-10-13T01:03:21.437Z,100360.09
2022-10-13T01:05:51.450Z,100367.91
2022-10-13T01:08:20.129Z,100369.78
2022-10-13T01:11:27.355Z,100366.41
2022-10-13T01:13:56.954Z,100374.97
2022-10-13T01:16:54.350Z,100371.78
2022-10-13T01:19:42.999Z,100368.78
2022-10-13T01:22:25.267Z,100369.53
2022-10-13T01:25:36.311Z,100373.88
2022-10-13T01:28:34.792Z,100378.09
2022-10-13T01:31:32.048Z,100374.66
2022-10-13T01:34:08.288Z,100380.97
2022-10-13T01:37:02.799Z,100369.22
2022-10-13T01:39:45.065Z,100373.94
2022-10-13T01:42:46.902Z,100373.44
2022-10-13T01:45:19.071Z,100378.53
2022-10-13T01:47:47.035Z,100382.28
2022-10-13T01:50:18.411Z,100376.69
2022-10-13T01:52:47.055Z,100364.91
2022-10-13T01:55:14.326Z,100369.09
2022-10-13T01:57:44.165Z,100374.41
2022-10-13T02:00:18.281Z,100378.22
2022-10-13T02:03:03.740Z,100376.13
2022-10-13T02:05:55.914Z,100366.47
2022-10-13T02:08:59.194Z,100381.69
2022-10-13T02:11:27.902Z,100389.25
2022-10-13T02:13:58.031Z,100388.25
2022-10-13T02:16:49.735Z,100364.91
2022-10-13T02:19:18.414Z,100388.31
2022-10-13T02:21:46.858Z,100393.38
2022-10-13T02:24:14.398Z,100394.66
2022-10-13T02:26:42.787Z,100390.66
2022-10-13T02:29:17.045Z,100391.94
2022-10-13T02:31:45.222Z,100397.06
2022-10-13T02:34:13.339Z,100401.09
2022-10-13T02:36:41.086Z,100393.97
2022-10-13T02:39:10.389Z,100371.47
2022-10-13T02:41:37.989Z,100395.75
2022-10-13T02:44:06.307Z,100399.41
2022-10-13T02:46:42.067Z,100401.41
2022-10-13T02:49:09.999Z,100404.59
2022-10-13T02:51:40.096Z,100396.03
2022-10-13T02:54:08.325Z,100401.31
2022-10-13T02:56:35.387Z,100398.00
2022-10-13T02:59:02.459Z,100393.03
2022-10-13T03:01:29.629Z,100397.19
2022-10-13T03:03:56.808Z,100384.84
2022-10-13T03:06:23.870Z,100395.78
2022-10-13T03:08:51.330Z,100399.66
2022-10-13T03:11:18.464Z,100400.94
2022-10-13T03:13:45.512Z,100406.84
2022-10-13T03:16:12.608Z,100401.13
2022-10-13T03:18:39.656Z,100404.16
2022-10-13T03:21:07.571Z,100396.75
2022-10-13T03:23:36.070Z,100403.03
2022-10-13T03:26:04.584Z,100390.31
2022-10-13T03:28:31.741Z,100407.53
2022-10-13T03:31:08.330Z,100414.28
2022-10-13T03:33:35.523Z,100411.91
2022-10-13T03:36:05.025Z,100411.13
2022-10-13T03:38:34.004Z,100412.91
2022-10-13T03:41:09.075Z,100405.56
2022-10-13T03:43:36.226Z,100412.44
2022-10-13T03:46:05.067Z,100417.16
2022-10-13T03:48:32.739Z,100422.81
2022-10-13T03:51:00.088Z,100424.34
2022-10-13T03:53:27.166Z,100420.50
2022-10-13T03:55:56.232Z,100427.34
2022-10-13T03:58:24.921Z,100436.50
2022-10-13T04:00:53.815Z,100437.09
2022-10-13T04:03:21.646Z,100435.69
2022-10-13T04:05:48.684Z,100436.81
2022-10-13T04:08:17.077Z,100427.28
2022-10-13T04:10:44.171Z,100436.06
2022-10-13T04:13:11.293Z,100441.00
2022-10-13T04:15:40.929Z,100440.38
2022-10-13T04:18:08.593Z,100418.22
2022-10-13T04:20:39.651Z,100446.97
2022-10-13T04:23:07.511Z,100449.31
2022-10-13T04:25:38.588Z,100444.47
2022-10-13T04:28:07.190Z,100430.56
2022-10-13T04:30:36.836Z,100446.50
2022-10-13T04:33:04.034Z,100451.28
2022-10-13T04:35:32.011Z,100456.56
2022-10-13T04:37:59.280Z,100456.50
2022-10-13T04:40:27.509Z,100463.44
2022-10-13T04:42:54.564Z,100464.03
2022-10-13T04:45:21.761Z,100461.75
2022-10-13T04:47:50.738Z,100463.66
2022-10-13T04:50:22.369Z,100448.66
2022-10-13T04:52:59.746Z,100463.00
2022-10-13T04:55:26.995Z,100473.59
2022-10-13T04:57:54.044Z,100471.25
2022-10-13T05:00:21.414Z,100371.38
2022-10-13T05:02:48.605Z,100466.19
2022-10-13T05:05:15.723Z,100467.63
2022-10-13T05:07:42.818Z,100474.00
2022-10-13T05:10:10.040Z,100446.91
2022-10-13T05:12:38.389Z,100478.56
2022-10-13T05:15:05.960Z,100477.56
2022-10-13T05:17:35.433Z,100479.78
2022-10-13T05:20:09.168Z,100478.88
2022-10-13T05:22:36.514Z,100481.88
2022-10-13T05:25:04.192Z,100476.13
2022-10-13T05:27:31.329Z,100488.41
2022-10-13T05:30:01.572Z,100483.56
2022-10-13T05:32:30.756Z,100477.50
2022-10-13T05:34:57.806Z,100482.94
2022-10-13T05:37:24.949Z,100476.28
2022-10-13T05:39:52.011Z,100480.47
2022-10-13T05:42:19.360Z,100487.13
2022-10-13T05:44:46.662Z,100479.75
2022-10-13T05:47:13.732Z,100486.34
2022-10-13T05:49:41.092Z,100501.97
2022-10-13T05:52:11.928Z,100497.56
2022-10-13T05:54:47.448Z,100494.69
2022-10-13T05:57:24.971Z,100497.75
2022-10-13T06:00:02.675Z,100473.75
2022-10-13T06:02:46.171Z,100481.69
2022-10-13T06:05:16.481Z,100486.88
2022-10-13T06:07:46.123Z,100493.38
2022-10-13T06:10:13.501Z,100482.22
2022-10-13T06:12:40.559Z,100485.44
2022-10-13T06:15:08.418Z,100461.50
2022-10-13T06:17:39.643Z,100464.28
2022-10-13T06:20:08.357Z,100482.31
2022-10-13T06:22:36.365Z,100444.47
2022-10-13T06:25:04.879Z,100485.97
2022-10-13T06:27:32.282Z,100478.63
2022-10-13T06:29:59.737Z,100488.50
2022-10-13T06:32:26.880Z,100485.75
2022-10-13T06:34:53.965Z,100476.50
2022-10-13T06:37:26.979Z,100496.44
2022-10-13T06:39:54.513Z,100496.69
2022-10-13T06:42:22.083Z,100510.84
2022-10-13T06:45:08.600Z,100492.69
2022-10-13T06:47:35.666Z,100492.16
2022-10-13T06:50:02.831Z,100497.97
2022-10-13T06:52:30.094Z,100498.28
2022-10-13T06:54:57.126Z,100500.22
2022-10-13T06:57:24.192Z,100498.31
2022-10-13T06:59:53.067Z,100502.97
2022-10-13T07:02:20.511Z,100497.78
2022-10-13T07:04:47.846Z,100508.22
2022-10-13T07:07:16.146Z,100492.34
2022-10-13T07:09:43.951Z,100517.78
2022-10-13T07:12:12.864Z,100507.81
2022-10-13T07:14:43.031Z,100515.63
2022-10-13T07:17:11.394Z,100521.84
2022-10-13T07:19:38.467Z,100515.38
2022-10-13T07:22:05.618Z,100501.22
2022-10-13T07:24:32.668Z,100493.38
2022-10-13T07:27:03.930Z,100513.78
2022-10-13T07:29:33.909Z,100514.38
2022-10-13T07:32:00.969Z,100511.31
2022-10-13T07:34:28.146Z,100493.56
2022-10-13T07:36:55.268Z,100501.63
2022-10-13T07:39:22.306Z,100502.31
2022-10-13T07:41:51.217Z,100508.84
2022-10-13T07:44:18.851Z,100512.44
2022-10-13T07:46:46.089Z,100522.16
2022-10-13T07:49:16.039Z,100491.88
2022-10-13T07:51:44.481Z,100490.81
2022-10-13T07:54:12.311Z,100508.00
2022-10-13T07:56:39.777Z,100505.78
2022-10-13T07:59:07.791Z,100514.66
2022-10-13T08:01:35.177Z,100515.50
2022-10-13T08:04:02.420Z,100525.50
2022-10-13T08:06:29.617Z,100516.19
2022-10-13T08:09:00.635Z,100524.34
2022-10-13T08:11:27.958Z,100518.00
2022-10-13T08:13:56.050Z,100516.59
2022-10-13T08:16:23.547Z,100523.53
2022-10-13T08:18:50.921Z,100515.50
2022-10-13T08:24:15.423Z,100532.25
2022-10-13T08:26:43.321Z,100525.47
2022-10-13T08:29:26.761Z,100519.34
2022-10-13T08:31:55.032Z,100542.78
2022-10-13T08:34:25.768Z,100533.22
2022-10-13T08:36:56.161Z,100547.66
2022-10-13T08:39:25.138Z,100530.69
2022-10-13T08:41:54.381Z,100537.38
2022-10-13T08:47:42.494Z,100544.03
2022-10-13T08:50:19.329Z,100536.00
2022-10-13T08:53:13.353Z,100537.13
2022-10-13T08:55:52.818Z,100529.94
2022-10-13T08:58:41.921Z,100518.38
2022-10-13T09:01:20.617Z,100528.78
2022-10-13T09:03:53.364Z,100527.13
2022-10-13T09:06:46.699Z,100534.63
2022-10-13T09:09:16.305Z,100531.72
2022-10-13T09:11:47.549Z,100526.00
2022-10-13T09:14:23.024Z,100531.03
2022-10-13T09:16:51.814Z,100530.72
2022-10-13T09:19:23.707Z,100531.00
2022-10-13T09:21:52.748Z,100531.88
2022-10-13T09:24:22.071Z,100520.34
2022-10-13T09:27:25.351Z,100525.75
2022-10-13T09:29:53.054Z,100516.31
2022-10-13T09:32:23.866Z,100526.59
2022-10-13T09:34:53.480Z,100522.16
2022-10-13T09:37:23.534Z,100524.66
2022-10-13T09:40:02.237Z,100525.19
2022-10-13T09:42:32.077Z,100527.13
2022-10-13T09:45:17.069Z,100523.47
2022-10-13T09:48:07.598Z,100532.97
2022-10-13T09:50:36.064Z,100525.75
2022-10-13T09:53:15.020Z,100535.19
2022-10-13T09:55:42.261Z,100537.84
2022-10-13T09:58:19.915Z,100524.91
2022-10-13T10:00:51.371Z,100533.78
2022-10-13T10:03:33.914Z,100512.44
2022-10-13T10:06:08.075Z,100520.22
2022-10-13T10:09:03.653Z,100521.03
2022-10-13T10:11:37.628Z,100528.78
2022-10-13T10:14:38.291Z,100515.06
2022-10-13T10:17:56.308Z,100524.34
2022-10-13T10:20:38.108Z,100522.41
2022-10-13T10:23:12.809Z,100526.28
2022-10-13T10:26:03.531Z,100530.19
2022-10-13T10:28:58.057Z,100529.50
2022-10-13T10:31:43.536Z,100527.09
2022-10-13T10:34:37.096Z,100526.28
2022-10-13T10:37:45.746Z,100523.78
2022-10-13T10:40:22.251Z,100533.66
2022-10-13T10:43:16.722Z,100524.91
2022-10-13T10:45:46.562Z,100529.75
2022-10-13T10:48:21.210Z,100519.38
2022-10-13T10:50:50.824Z,100509.94
2022-10-13T10:53:21.137Z,100523.22
2022-10-13T10:55:55.582Z,100534.84
2022-10-13T10:58:46.731Z,100529.91
2022-10-13T11:01:25.232Z,100527.69
2022-10-13T11:04:22.584Z,100500.38
2022-10-13T11:06:49.649Z,100522.69
2022-10-13T11:09:42.643Z,100529.63
2022-10-13T11:12:22.010Z,100526.88
2022-10-13T11:14:55.432Z,100526.03
2022-10-13T11:17:39.579Z,100521.00
2022-10-13T11:20:21.892Z,100526.28
2022-10-13T11:22:57.859Z,100524.50
2022-10-13T11:25:47.594Z,100535.03
2022-10-13T11:28:23.696Z,100534.63
2022-10-13T11:31:17.546Z,100528.78
2022-10-13T11:33:45.807Z,100533.78
2022-10-13T11:36:39.598Z,100537.53
2022-10-13T11:39:26.714Z,100526.44
2022-10-13T11:42:03.015Z,100524.03
2022-10-13T11:45:24.097Z,100534.34
2022-10-13T11:48:16.278Z,100528.63
2022-10-13T11:51:08.255Z,100513.69
2022-10-13T11:54:01.509Z,100523.94
2022-10-13T11:56:48.786Z,100526.28
2022-10-13T11:59:27.674Z,100518.56
2022-10-13T12:02:06.969Z,100526.59
2022-10-13T12:04:34.079Z,100513.81
2022-10-13T12:07:04.962Z,100513.81
2022-10-13T12:09:32.422Z,100517.03
2022-10-13T12:12:12.676Z,100516.59
2022-10-13T12:14:45.601Z,100514.13
2022-10-13T12:17:39.095Z,100514.94
2022-10-13T12:20:25.650Z,100505.50
2022-10-13T12:22:54.471Z,100517.97
2022-10-13T12:25:25.691Z,100519.91
2022-10-13T12:28:01.088Z,100515.50
2022-10-13T12:30:36.379Z,100512.16
2022-10-13T12:33:18.119Z,100512.13
2022-10-13T12:35:45.226Z,100510.22
2022-10-13T12:38:19.873Z,100509.38
2022-10-13T12:40:53.391Z,100509.66
2022-10-13T12:43:27.590Z,100506.47
2022-10-13T12:45:54.801Z,100511.88
2022-10-13T12:48:34.247Z,100509.34
2022-10-13T12:51:23.478Z,100520.16
2022-10-13T12:53:50.733Z,100517.41
2022-10-13T12:56:30.756Z,100514.38
2022-10-13T12:58:58.998Z,100492.06
2022-10-13T13:01:28.957Z,100518.25
2022-10-13T13:03:59.211Z,100514.38
2022-10-13T13:06:37.422Z,100519.50
2022-10-13T13:09:18.396Z,100517.56
2022-10-13T13:11:45.667Z,100515.75
2022-10-13T13:14:37.922Z,100517.56
2022-10-13T13:17:27.698Z,100524.66
2022-10-13T13:20:26.371Z,100520.22
2022-10-13T13:22:54.806Z,100525.75
2022-10-13T13:25:22.060Z,100521.31
2022-10-13T13:27:49.318Z,100524.06
2022-10-13T13:30:21.958Z,100529.91
2022-10-13T13:32:50.038Z,100521.81
2022-10-13T13:35:18.113Z,100528.75
2022-10-13T13:37:50.563Z,100532.34
2022-10-13T13:40:23.409Z,100537.59
2022-10-13T13:42:50.795Z,100525.44
2022-10-13T13:45:20.572Z,100536.13
2022-10-13T13:47:48.399Z,100543.94
2022-10-13T13:50:27.246Z,100525.41
2022-10-13T13:52:57.652Z,100516.69
2022-10-13T13:55:26.028Z,100528.75
2022-10-13T13:57:53.280Z,100548.97
2022-10-13T14:00:22.625Z,100544.78
2022-10-13T14:02:56.743Z,100552.25
2022-10-13T14:05:24.233Z,100555.84
2022-10-13T14:07:53.964Z,100550.00
2022-10-13T14:10:21.065Z,100552.50
2022-10-13T14:12:48.203Z,100550.31
2022-10-13T14:15:15.743Z,100554.88
2022-10-13T14:17:42.972Z,100551.44
2022-10-13T14:20:10.419Z,100561.72
2022-10-13T14:22:39.267Z,100561.94
2022-10-13T14:25:07.632Z,100540.34
2022-10-13T14:27:35.675Z,100551.91
2022-10-13T14:30:07.760Z,100534.56
2022-10-13T14:32:37.214Z,100545.34
2022-10-13T14:35:08.209Z,100563.16
2022-10-13T14:37:35.707Z,100568.91
2022-10-13T14:40:03.160Z,100561.63
2022-10-13T14:42:30.773Z,100567.09
2022-10-13T14:44:57.898Z,100538.25
2022-10-13T14:47:24.975Z,100563.03
2022-10-13T14:49:54.487Z,100571.38
2022-10-13T14:52:21.609Z,100568.09
2022-10-13T14:54:48.659Z,100580.28
2022-10-13T14:57:16.506Z,100572.16
2022-10-13T14:59:44.219Z,100578.63
2022-10-13T15:02:12.148Z,100585.75
2022-10-13T15:04:45.440Z,100586.63
2022-10-13T15:07:12.557Z,100584.66
2022-10-13T15:09:53.245Z,100593.00
2022-10-13T15:12:28.153Z,100591.78
2022-10-13T15:14:55.282Z,100591.66
2022-10-13T15:17:22.554Z,100592.19
2022-10-13T15:19:50.021Z,100601.03
2022-10-13T15:22:17.125Z,100571.00
2022-10-13T15:24:44.180Z,100574.50
2022-10-13T15:27:11.279Z,100606.19
2022-10-13T15:29:38.365Z,100623.38
2022-10-13T15:32:10.942Z,100616.91
2022-10-13T15:34:41.164Z,100622.03
2022-10-13T15:37:08.331Z,100612.59
2022-10-13T15:39:35.715Z,100617.41
2022-10-13T15:42:04.220Z,100616.66
2022-10-13T15:44:50.991Z,100609.00
2022-10-13T15:47:18.819Z,100618.56
2022-10-13T15:49:45.910Z,100603.09
2022-10-13T15:52:13.015Z,100599.53
2022-10-13T15:54:40.991Z,100618.69
2022-10-13T15:57:08.568Z,100595.47
2022-10-13T15:59:35.716Z,100626.44
2022-10-13T16:02:02.869Z,100626.47
2022-10-13T16:04:34.850Z,100623.84
2022-10-13T16:07:04.517Z,100624.59
2022-10-13T16:09:31.704Z,100603.34
2022-10-13T16:11:58.844Z,100621.56
2022-10-13T16:14:25.921Z,100622.41
2022-10-13T16:16:52.986Z,100624.09
2022-10-13T16:19:20.158Z,100626.47
2022-10-13T16:21:47.251Z,100619.53
2022-10-13T16:24:15.054Z,100620.59
2022-10-13T16:26:42.233Z,100611.41
2022-10-13T16:29:09.367Z,100602.28
2022-10-13T16:31:36.423Z,100617.78
2022-10-13T16:34:04.006Z,100608.34
2022-10-13T16:36:31.376Z,100620.34
2022-10-13T16:38:58.983Z,100606.59
2022-10-13T16:41:27.416Z,100611.63
2022-10-13T16:43:55.183Z,100615.50
2022-10-13T16:46:22.570Z,100616.44
2022-10-13T16:48:50.176Z,100620.75
2022-10-13T16:51:20.286Z,100614.66
2022-10-13T16:53:51.867Z,100619.53
2022-10-13T16:56:22.690Z,100611.44
2022-10-13T16:58:50.720Z,100616.78
2022-10-13T17:01:17.888Z,100618.34
2022-10-13T17:03:45.992Z,100628.00
2022-10-13T17:06:14.424Z,100624.66
2022-10-13T17:08:42.848Z,100620.38
2022-10-13T17:11:21.429Z,100628.50
2022-10-13T17:13:49.640Z,100618.34
2022-10-13T17:16:17.441Z,100598.81
2022-10-13T17:18:45.428Z,100617.19
2022-10-13T17:21:15.183Z,100624.56
2022-10-13T17:23:48.389Z,100627.44
2022-10-13T17:26:17.519Z,100623.38
2022-10-13T17:28:46.020Z,100621.47
2022-10-13T17:31:19.360Z,100620.16
2022-10-13T17:33:47.875Z,100611.31
2022-10-13T17:36:22.218Z,100618.13
2022-10-13T17:38:50.108Z,100623.38
2022-10-13T17:41:18.612Z,100622.53
2022-10-13T17:43:51.171Z,100622.88
2022-10-13T17:46:36.303Z,100626.50
2022-10-13T17:49:05.613Z,100627.56
2022-10-13T17:51:32.794Z,100618.84
2022-10-13T17:54:00.688Z,100625.78
2022-10-13T17:56:28.694Z,100629.72
2022-10-13T17:58:55.958Z,100628.88
2022-10-13T18:01:26.498Z,100627.44
2022-10-13T18:03:59.204Z,100631.22
2022-10-13T18:06:38.468Z,100622.19
2022-10-13T18:09:14.761Z,100624.31
2022-10-13T18:11:49.455Z,100608.59
2022-10-13T18:14:23.482Z,100626.47
2022-10-13T18:16:51.851Z,100621.94
2022-10-13T18:19:19.331Z,100623.16
2022-10-13T18:21:46.514Z,100626.22
2022-10-13T18:24:13.933Z,100593.19
2022-10-13T18:26:41.073Z,100618.56
2022-10-13T18:29:10.896Z,100620.47
2022-10-13T18:31:39.703Z,100619.28
2022-10-13T18:34:10.781Z,100621.81
2022-10-13T18:36:44.462Z,100626.22
2022-10-13T18:39:14.800Z,100620.25
2022-10-13T18:41:46.109Z,100633.38
2022-10-13T18:44:13.652Z,100632.44
2022-10-13T18:46:41.060Z,100621.81
2022-10-13T18:49:12.614Z,100634.81
2022-10-13T18:51:42.223Z,100632.41
2022-10-13T18:54:11.236Z,100625.25
2022-10-13T18:56:39.843Z,100639.56
2022-10-13T18:59:08.528Z,100640.13
2022-10-13T19:01:37.817Z,100631.88
2022-10-13T19:04:05.809Z,100634.72
2022-10-13T19:06:33.550Z,100632.47
2022-10-13T19:09:06.120Z,100641.88
2022-10-13T19:11:37.198Z,100646.22
2022-10-13T19:14:06.994Z,100636.47
2022-10-13T19:16:37.177Z,100621.19
2022-10-13T19:19:04.895Z,100633.19
2022-10-13T19:21:32.786Z,100629.78
2022-10-13T19:24:00.081Z,100636.72
2022-10-13T19:26:30.845Z,100631.19
2022-10-13T19:29:01.520Z,100605.19
2022-10-13T19:31:33.005Z,100632.28
2022-10-13T19:34:03.413Z,100631.69
2022-10-13T19:36:37.490Z,100628.34
2022-10-13T19:39:11.932Z,100635.41
2022-10-13T19:41:39.288Z,100642.81
2022-10-13T19:44:06.515Z,100627.91
2022-10-13T19:46:40.420Z,100644.09
2022-10-13T19:49:10.735Z,100644.59
2022-10-13T19:51:43.714Z,100634.03
2022-10-13T19:54:11.338Z,100636.81
2022-10-13T19:56:42.333Z,100635.72
2022-10-13T19:59:09.379Z,100635.72
2022-10-13T20:01:41.094Z,100620.16
2022-10-13T20:04:14.652Z,100628.22
2022-10-13T20:06:44.226Z,100632.53
2022-10-13T20:09:11.327Z,100630.16
2022-10-13T20:11:38.672Z,100635.16
2022-10-13T20:14:08.532Z,100616.03
2022-10-13T20:16:38.365Z,100627.47
2022-10-13T20:19:06.987Z,100622.88
2022-10-13T20:21:36.843Z,100633.25
2022-10-13T20:24:06.266Z,100621.56
2022-10-13T20:26:37.507Z,100629.06
2022-10-13T20:29:04.615Z,100632.56
2022-10-13T20:31:34.780Z,100641.41
2022-10-13T20:34:01.937Z,100641.22
2022-10-13T20:36:36.036Z,100623.47
2022-10-13T20:39:05.940Z,100635.16
2022-10-13T20:41:33.621Z,100648.38
2022-10-13T20:44:01.681Z,100637.72
2022-10-13T20:46:31.097Z,100645.97
2022-10-13T20:49:10.402Z,100653.47
2022-10-13T20:51:37.937Z,100643.78
2022-10-13T20:54:05.272Z,100635.56
2022-10-13T20:56:32.426Z,100646.31
2022-10-13T20:59:03.624Z,100655.75
2022-10-13T21:01:31.079Z,100631.66
2022-10-13T21:03:58.460Z,100644.47
2022-10-13T21:06:26.567Z,100651.84
2022-10-13T21:08:54.169Z,100638.06
2022-10-13T21:11:22.540Z,100643.56
2022-10-13T21:13:51.126Z,100657.41
2022-10-13T21:16:27.812Z,100650.72
2022-10-13T21:18:56.688Z,100653.94
2022-10-13T21:21:26.785Z,100642.50
2022-10-13T21:23:56.773Z,100658.25
2022-10-13T21:26:26.317Z,100662.97
2022-10-13T21:28:56.842Z,100665.09
2022-10-13T21:31:25.179Z,100662.81
2022-10-13T21:33:52.916Z,100667.72
2022-10-13T21:36:23.562Z,100655.09
2022-10-13T21:38:53.513Z,100637.94
2022-10-13T21:41:21.296Z,100662.03
2022-10-13T21:43:49.961Z,100671.28
2022-10-13T21:46:23.311Z,100664.81
2022-10-13T21:48:57.955Z,100662.06
2022-10-13T21:51:29.455Z,100645.53
2022-10-13T21:54:07.557Z,100665.78
2022-10-13T21:56:36.937Z,100660.16
2022-10-13T21:59:05.174Z,100662.44
2022-10-13T22:01:33.163Z,100667.91
2022-10-13T22:04:02.533Z,100658.91
2022-10-13T22:06:31.717Z,100663.34
2022-10-13T22:09:00.858Z,100668.16
2022-10-13T22:11:30.858Z,100665.34
2022-10-13T22:13:58.989Z,100668.22
2022-10-13T22:16:52.752Z,100681.56
2022-10-13T22:19:22.606Z,100673.19
2022-10-13T22:21:50.038Z,100654.50
2022-10-13T22:24:21.367Z,100675.09
2022-10-13T22:26:49.325Z,100672.13
2022-10-13T22:29:20.227Z,100671.53
2022-10-13T22:31:48.488Z,100678.56
2022-10-13T22:34:16.528Z,100672.97
2022-10-13T22:36:45.051Z,100684.19
2022-10-13T22:39:13.701Z,100677.94
2022-10-13T22:41:41.566Z,100679.09
2022-10-13T22:44:09.064Z,100674.84
2022-10-13T22:46:37.648Z,100667.31
2022-10-13T22:49:06.647Z,100674.84
2022-10-13T22:51:35.617Z,100677.72
2022-10-13T22:54:03.618Z,100684.66
2022-10-13T22:56:32.883Z,100678.44
2022-10-13T22:59:02.618Z,100682.97
2022-10-13T23:01:29.774Z,100681.56
2022-10-13T23:03:58.232Z,100678.94
2022-10-13T23:06:28.532Z,100664.59
2022-10-13T23:08:56.084Z,100675.31
2022-10-13T23:11:23.395Z,100661.94
2022-10-13T23:13:50.800Z,100677.72
2022-10-13T23:16:21.160Z,100682.22
2022-10-13T23:18:48.634Z,100677.19
2022-10-13T23:21:26.222Z,100676.84
2022-10-13T23:24:01.184Z,100683.06
2022-10-13T23:26:29.327Z,100678.22
2022-10-13T23:28:57.153Z,100688.22
2022-10-13T23:31:25.474Z,100686.41
2022-10-13T23:33:53.335Z,100675.28
2022-10-13T23:36:23.756Z,100674.25
2022-10-13T23:38:58.943Z,100690.13
2022-10-13T23:41:26.874Z,100662.22
2022-10-13T23:43:54.248Z,100673.41
2022-10-13T23:46:21.410Z,100681.28
2022-10-13T23:48:48.512Z,100685.81
2022-10-13T23:51:18.986Z,100687.97
2022-10-13T23:53:46.670Z,100692.06
2022-10-13T23:56:15.486Z,100692.53
2022-10-13T23:58:44.323Z,100693.03
